Time;durP1;ratioP1;P1;durP2;ratioP2;P2;SDS_P1;SDS_P2;PMS_P1;PMS_P2;Temp;Humidity;BMP_temperature;BMP_pressure;BME280_temperature;BME280_humidity;BME280_pressure;Samples;Min_cycle;Max_cycle;Signal;HPM_P1;HPM_P2
2021/06/27 00:01:30;;;;;;;10.60;2.90;;;;;;;18.20;70.96;93982.97;5057570;28;20404;-74
2021/06/27 00:03:56;;;;;;;13.98;2.80;;;;;;;18.19;70.54;93986.03;5062059;28;20430;-74
2021/06/27 00:06:22;;;;;;;10.07;3.45;;;;;;;18.19;69.51;93978.72;5059062;28;20040;-73
2021/06/27 00:08:48;;;;;;;11.63;3.20;;;;;;;18.21;71.36;93989.16;5063513;28;20451;-73
2021/06/27 00:11:14;;;;;;;12.02;2.85;;;;;;;18.21;70.80;93999.94;5065210;28;20020;-74
2021/06/27 00:13:46;;;;;;;11.48;4.35;;;;;;;18.23;70.47;93995.75;5070386;28;20079;-74
2021/06/27 00:16:12;;;;;;;8.70;3.05;;;;;;;18.21;70.11;93989.91;5055151;28;20028;-73
2021/06/27 00:18:38;;;;;;;13.10;3.80;;;;;;;18.15;70.85;93985.97;5066785;28;20037;-74
2021/06/27 00:21:09;;;;;;;11.20;2.30;;;;;;;18.16;71.06;93987.53;5067856;28;20036;-74
2021/06/27 00:23:42;;;;;;;10.80;2.80;;;;;;;18.06;70.68;93982.72;5070588;28;20020;-74
2021/06/27 00:26:10;;;;;;;8.90;3.03;;;;;;;18.01;70.82;93983.81;5067897;28;20078;-74
2021/06/27 00:28:35;;;;;;;8.32;3.25;;;;;;;17.98;71.43;93976.41;5069709;28;20032;-73
2021/06/27 00:31:03;;;;;;;15.20;3.67;;;;;;;17.95;71.42;93976.34;5058573;28;20083;-74
2021/06/27 00:33:28;;;;;;;16.48;3.45;;;;;;;17.95;72.14;93965.53;5057959;28;20032;-74
2021/06/27 00:35:54;;;;;;;15.95;3.30;;;;;;;17.99;72.40;93966.41;5071956;28;20062;-74
2021/06/27 00:38:19;;;;;;;14.90;3.58;;;;;;;18.02;72.70;93961.06;5064734;28;20093;-74
2021/06/27 00:40:46;;;;;;;11.18;3.90;;;;;;;18.05;72.33;93964.97;5060534;28;20078;-74
2021/06/27 00:43:12;;;;;;;13.02;3.83;;;;;;;18.05;72.33;93970.34;5068959;28;20032;-74
2021/06/27 00:45:38;;;;;;;10.10;3.92;;;;;;;18.07;71.18;93968.09;5060334;28;20033;-74
2021/06/27 00:48:05;;;;;;;12.23;3.92;;;;;;;18.03;71.28;93972.63;5065243;28;20074;-74
2021/06/27 00:50:34;;;;;;;16.02;4.28;;;;;;;18.00;71.51;93973.34;5057192;28;20020;-74
2021/06/27 00:53:00;;;;;;;12.70;3.28;;;;;;;17.97;71.68;93968.66;5064623;28;20150;-74
2021/06/27 00:56:03;;;;;;;8.60;3.15;;;;;;;17.96;70.97;93975.22;5058545;28;20058;-74
2021/06/27 00:58:31;;;;;;;10.45;3.55;;;;;;;17.92;71.55;93967.06;5051465;28;20056;-74
2021/06/27 01:00:57;;;;;;;12.60;3.72;;;;;;;17.91;71.45;93962.00;5059760;28;20475;-74
2021/06/27 01:03:23;;;;;;;10.82;5.55;;;;;;;17.95;72.01;93962.84;5052377;28;20468;-74
2021/06/27 01:05:49;;;;;;;12.88;4.25;;;;;;;17.98;72.32;93971.00;5065642;28;20036;-74
2021/06/27 01:08:14;;;;;;;15.57;3.50;;;;;;;18.01;72.17;93964.91;5062115;28;20098;-74
2021/06/27 01:10:41;;;;;;;12.27;3.88;;;;;;;18.02;71.84;93954.91;5053371;28;20040;-74
2021/06/27 01:13:07;;;;;;;8.60;3.00;;;;;;;18.04;72.24;93950.72;5064265;28;20051;-73
2021/06/27 01:15:33;;;;;;;18.13;3.30;;;;;;;18.02;71.81;93947.59;5066473;28;20032;-73
2021/06/27 01:17:58;;;;;;;9.93;3.15;;;;;;;18.04;71.94;93939.16;5070422;28;20059;-74
2021/06/27 01:20:27;;;;;;;12.00;3.33;;;;;;;18.03;71.43;93948.38;5064719;28;20063;-73
2021/06/27 01:22:53;;;;;;;11.07;3.08;;;;;;;18.00;71.20;93941.00;5065970;28;20020;-73
2021/06/27 01:25:27;;;;;;;11.95;3.60;;;;;;;17.97;70.56;93941.69;5054257;28;20021;-73
2021/06/27 01:27:54;;;;;;;8.52;3.47;;;;;;;17.92;70.93;93940.09;5058547;28;20119;-73
2021/06/27 01:30:21;;;;;;;9.93;3.60;;;;;;;17.87;71.34;93936.91;5061809;28;20503;-73
2021/06/27 01:32:49;;;;;;;8.50;3.13;;;;;;;17.87;71.61;93928.81;5065681;28;20029;-72
2021/06/27 01:35:17;;;;;;;12.00;2.90;;;;;;;17.89;71.79;93924.63;5072288;28;20032;-72
2021/06/27 01:37:48;;;;;;;8.52;2.88;;;;;;;17.92;71.72;93917.75;5059914;28;20025;-72
2021/06/27 01:40:16;;;;;;;8.27;3.60;;;;;;;17.92;71.44;93907.72;5054483;28;20025;-72
2021/06/27 01:42:41;;;;;;;12.88;3.72;;;;;;;17.94;71.18;93910.06;5065300;28;20435;-73
2021/06/27 01:45:17;;;;;;;13.70;2.83;;;;;;;17.90;71.44;93910.00;5061015;28;20024;-73
2021/06/27 01:47:53;;;;;;;12.73;3.35;;;;;;;17.89;71.38;93919.25;5061078;28;20029;-73
2021/06/27 01:50:18;;;;;;;17.80;3.30;;;;;;;17.83;71.53;93926.84;5057463;28;20021;-74
2021/06/27 01:52:44;;;;;;;16.10;3.65;;;;;;;17.80;71.37;93937.53;5068419;28;20056;-73
2021/06/27 01:55:09;;;;;;;14.02;3.00;;;;;;;17.74;71.52;93939.72;5068101;28;20528;-73
2021/06/27 01:57:34;;;;;;;10.30;3.33;;;;;;;17.69;71.69;93950.81;5068704;28;20024;-73
2021/06/27 02:00:02;;;;;;;10.43;3.67;;;;;;;17.63;71.44;93946.84;5064424;28;20499;-74
2021/06/27 02:02:27;;;;;;;7.63;2.58;;;;;;;17.61;71.83;93944.47;5059693;28;20036;-74
2021/06/27 02:04:52;;;;;;;10.88;4.10;;;;;;;17.59;72.06;93941.38;5058874;28;20021;-74
2021/06/27 02:07:18;;;;;;;10.98;4.22;;;;;;;17.58;72.25;93934.41;5055390;28;20032;-74
2021/06/27 02:09:43;;;;;;;23.35;3.58;;;;;;;17.58;72.38;93933.63;5067542;28;20117;-74
2021/06/27 02:12:10;;;;;;;13.13;3.38;;;;;;;17.60;72.33;93925.97;5062546;28;20021;-74
2021/06/27 02:14:40;;;;;;;16.35;3.38;;;;;;;17.59;72.17;93917.09;5072334;28;20040;-74
2021/06/27 02:17:06;;;;;;;14.02;3.13;;;;;;;17.60;72.22;93915.97;5071738;28;20021;-74
2021/06/27 02:19:32;;;;;;;20.58;4.25;;;;;;;17.63;71.84;93915.25;5063593;28;20043;-74
2021/06/27 02:21:58;;;;;;;7.85;3.15;;;;;;;17.64;71.69;93918.72;5063734;28;20400;-73
2021/06/27 02:24:24;;;;;;;14.73;3.25;;;;;;;17.60;71.71;93912.50;5068338;28;20035;-74
2021/06/27 02:26:49;;;;;;;9.57;3.50;;;;;;;17.57;71.54;93905.13;5057606;28;20036;-74
2021/06/27 02:29:15;;;;;;;13.57;3.33;;;;;;;17.56;72.07;93911.66;5062302;28;20032;-73
2021/06/27 02:31:47;;;;;;;18.30;3.17;;;;;;;17.55;72.25;93910.88;5058067;28;20067;-73
2021/06/27 02:34:13;;;;;;;12.90;2.50;;;;;;;17.51;71.83;93914.63;5065105;28;20021;-73
2021/06/27 02:36:38;;;;;;;10.68;3.33;;;;;;;17.43;71.81;93919.88;5068728;28;20025;-74
2021/06/27 02:39:04;;;;;;;13.45;3.42;;;;;;;17.45;72.14;93919.53;5061316;28;20083;-73
2021/06/27 02:41:29;;;;;;;12.43;3.50;;;;;;;17.44;72.16;93931.41;5064272;28;20044;-74
2021/06/27 02:43:55;;;;;;;8.57;3.33;;;;;;;17.40;71.99;93930.56;5059214;28;20032;-74
2021/06/27 02:46:20;;;;;;;9.48;2.97;;;;;;;17.39;72.46;93929.81;5059716;28;20027;-75
2021/06/27 02:48:45;;;;;;;11.30;3.00;;;;;;;17.39;72.40;93932.50;5068331;28;20174;-74
2021/06/27 02:51:11;;;;;;;23.52;6.00;;;;;;;17.40;71.83;93934.06;5056250;28;20115;-74
2021/06/27 02:53:36;;;;;;;14.40;3.47;;;;;;;17.37;72.25;93937.47;5068715;28;20149;-74
2021/06/27 02:56:09;;;;;;;13.27;3.08;;;;;;;17.37;72.52;93937.47;5061089;28;20562;-73
2021/06/27 02:58:44;;;;;;;16.23;4.18;;;;;;;17.37;72.00;93942.84;5073617;28;20071;-73
2021/06/27 03:01:11;;;;;;;13.02;4.00;;;;;;;17.35;72.50;93945.09;5070690;28;20554;-73
2021/06/27 03:03:38;;;;;;;13.35;3.17;;;;;;;17.38;72.53;93949.00;5062841;28;20039;-74
2021/06/27 03:06:04;;;;;;;14.15;2.92;;;;;;;17.42;71.47;93945.28;5059085;28;20132;-74
2021/06/27 03:08:30;;;;;;;20.13;4.28;;;;;;;17.38;71.57;93949.81;5061082;28;20056;-73
2021/06/27 03:10:56;;;;;;;9.60;3.20;;;;;;;17.31;71.77;93955.03;5057485;28;20032;-74
2021/06/27 03:13:21;;;;;;;13.32;3.55;;;;;;;17.23;72.13;93964.09;5058459;28;20044;-73
2021/06/27 03:15:47;;;;;;;12.57;4.07;;;;;;;17.22;72.28;93952.56;5060190;28;20139;-73
2021/06/27 03:18:12;;;;;;;15.23;3.58;;;;;;;17.30;72.63;93958.06;5065745;28;20021;-73
2021/06/27 03:20:38;;;;;;;9.80;3.80;;;;;;;17.34;72.24;93953.53;5064048;28;20412;-72
2021/06/27 03:23:04;;;;;;;6.40;3.15;;;;;;;17.35;72.80;93960.50;5056903;28;20024;-73
2021/06/27 03:25:31;;;;;;;16.38;4.18;;;;;;;17.39;72.52;93955.97;5061595;28;20039;-72
2021/06/27 03:27:56;;;;;;;15.68;4.03;;;;;;;17.43;72.91;93957.59;5060330;28;20129;-73
2021/06/27 03:30:22;;;;;;;15.10;3.97;;;;;;;17.48;73.37;93955.75;5062675;28;20029;-73
2021/06/27 03:32:48;;;;;;;15.70;4.55;;;;;;;17.51;73.68;93949.66;5064277;28;20024;-73
2021/06/27 03:35:13;;;;;;;19.98;4.45;;;;;;;17.52;73.75;93938.50;5062108;28;20033;-73
2021/06/27 03:37:46;;;;;;;14.55;4.28;;;;;;;17.53;74.23;93947.41;5060483;28;20021;-75
2021/06/27 03:40:20;;;;;;;10.38;5.32;;;;;;;17.59;74.47;93960.22;5059641;28;20063;-73
2021/06/27 03:42:47;;;;;;;12.73;4.85;;;;;;;17.65;74.32;93953.41;5068196;28;20063;-73
2021/06/27 03:45:14;;;;;;;10.18;4.80;;;;;;;17.70;74.50;93965.81;5060039;28;20032;-73
2021/06/27 03:47:41;;;;;;;14.90;5.07;;;;;;;17.76;74.24;93958.25;5065593;28;20067;-73
2021/06/27 03:50:07;;;;;;;21.98;5.55;;;;;;;17.78;74.10;93964.81;5061144;28;20025;-73
2021/06/27 03:52:32;;;;;;;17.20;5.47;;;;;;;17.86;74.26;93978.47;5055056;28;20083;-73
2021/06/27 03:54:58;;;;;;;19.08;4.75;;;;;;;17.93;73.88;93979.41;5057914;28;20115;-73
2021/06/27 03:57:23;;;;;;;14.68;5.43;;;;;;;17.99;74.13;93966.41;5058521;28;20025;-73
2021/06/27 03:59:48;;;;;;;12.18;4.88;;;;;;;18.01;73.99;93967.63;5063532;28;20021;-73
2021/06/27 04:02:14;;;;;;;13.90;5.20;;;;;;;18.07;73.88;93970.00;5059723;28;20024;-73
2021/06/27 04:04:39;;;;;;;20.70;5.20;;;;;;;18.13;73.77;93969.34;5057029;28;20090;-73
2021/06/27 04:07:05;;;;;;;16.98;5.82;;;;;;;18.17;73.62;93954.00;5060903;28;20033;-73
2021/06/27 04:09:30;;;;;;;19.08;5.10;;;;;;;18.25;73.53;93958.38;5066715;28;20032;-73
2021/06/27 04:11:56;;;;;;;18.77;6.10;;;;;;;18.32;73.11;93955.06;5055638;28;20479;-74
2021/06/27 04:14:21;;;;;;;17.30;5.15;;;;;;;18.36;72.93;93953.19;5055986;28;20072;-73
2021/06/27 04:16:46;;;;;;;16.17;5.50;;;;;;;18.40;72.52;93958.66;5062908;28;20023;-73
2021/06/27 04:19:12;;;;;;;14.95;4.88;;;;;;;18.48;72.16;93965.75;5066158;28;20020;-73
2021/06/27 04:21:37;;;;;;;21.15;5.57;;;;;;;18.51;72.53;93969.63;5058887;28;20506;-75
2021/06/27 04:24:03;;;;;;;19.73;6.00;;;;;;;18.50;72.46;93979.66;5057130;28;20388;-73
2021/06/27 04:26:28;;;;;;;16.08;4.68;;;;;;;18.60;72.20;93978.25;5066081;28;20407;-74
2021/06/27 04:28:54;;;;;;;12.75;4.97;;;;;;;18.69;71.67;93983.41;5050325;28;20518;-74
2021/06/27 04:31:19;;;;;;;17.02;5.40;;;;;;;18.74;70.96;93983.09;5068034;28;20017;-74
2021/06/27 04:33:45;;;;;;;12.30;4.80;;;;;;;18.81;70.99;93991.34;5055086;28;20107;-74
2021/06/27 04:36:10;;;;;;;13.68;5.40;;;;;;;18.88;70.43;93985.28;5062350;28;20068;-74
2021/06/27 04:38:36;;;;;;;23.27;5.40;;;;;;;18.91;70.69;93974.53;5051597;28;20021;-74
2021/06/27 04:41:01;;;;;;;30.35;6.22;;;;;;;18.98;70.91;93980.03;5066882;28;20035;-73
2021/06/27 04:43:27;;;;;;;10.55;4.35;;;;;;;19.07;70.36;93979.00;5061278;28;20028;-74
2021/06/27 04:45:52;;;;;;;19.20;5.13;;;;;;;19.14;70.20;93987.22;5065978;28;20028;-75
2021/06/27 04:48:18;;;;;;;13.80;4.97;;;;;;;19.19;69.99;93987.69;5066509;28;20021;-74
2021/06/27 04:50:46;;;;;;;13.80;4.88;;;;;;;19.30;69.41;93987.06;5068680;28;20017;-74
2021/06/27 04:53:12;;;;;;;16.58;5.43;;;;;;;19.36;69.47;93989.06;5058832;28;20091;-74
2021/06/27 04:55:39;;;;;;;19.10;5.82;;;;;;;19.27;68.84;93993.19;5066401;28;20052;-73
2021/06/27 04:58:04;;;;;;;18.17;5.43;;;;;;;19.17;69.21;93989.19;5058484;28;20077;-74
2021/06/27 05:00:30;;;;;;;13.05;5.53;;;;;;;19.23;69.03;93998.53;5063591;28;20540;-73
2021/06/27 05:02:56;;;;;;;14.32;5.88;;;;;;;19.12;69.97;94008.41;5054818;28;20032;-74
2021/06/27 05:05:21;;;;;;;20.08;6.07;;;;;;;19.14;70.33;93995.31;5058863;28;20029;-73
2021/06/27 05:07:47;;;;;;;19.10;6.30;;;;;;;19.28;70.12;93997.47;5065224;28;20124;-74
2021/06/27 05:10:12;;;;;;;16.10;6.47;;;;;;;19.34;68.90;93999.47;5060564;28;20385;-74
2021/06/27 05:12:37;;;;;;;24.42;6.85;;;;;;;19.35;69.19;94000.25;5056894;28;20428;-74
2021/06/27 05:15:03;;;;;;;19.10;7.57;;;;;;;19.35;69.72;94006.41;5063628;28;20083;-74
2021/06/27 05:17:29;;;;;;;15.63;5.82;;;;;;;19.32;70.10;94001.75;5053724;28;20099;-74
2021/06/27 05:19:54;;;;;;;17.40;6.72;;;;;;;19.27;70.57;94004.75;5058744;28;20191;-74
2021/06/27 05:22:20;;;;;;;30.17;6.47;;;;;;;19.24;70.75;94000.09;5067339;28;20029;-74
2021/06/27 05:24:45;;;;;;;16.75;6.20;;;;;;;19.22;70.81;93997.00;5061628;28;20032;-74
2021/06/27 05:27:11;;;;;;;24.63;6.85;;;;;;;19.23;69.95;93998.53;5063144;28;20122;-74
2021/06/27 05:29:36;;;;;;;14.25;6.45;;;;;;;19.28;70.75;93992.81;5069580;28;20028;-73
2021/06/27 05:32:02;;;;;;;14.70;5.90;;;;;;;19.42;70.59;93995.72;5057145;28;20025;-73
2021/06/27 05:34:29;;;;;;;15.20;7.50;;;;;;;19.63;71.10;93989.81;5055267;28;20023;-73
2021/06/27 05:36:56;;;;;;;16.15;5.53;;;;;;;19.68;69.37;93996.81;5066180;28;20102;-73
2021/06/27 05:39:23;;;;;;;14.50;5.63;;;;;;;19.75;69.13;93996.16;5054101;28;20025;-72
2021/06/27 05:41:49;;;;;;;16.88;7.03;;;;;;;19.90;69.07;93997.13;5062363;28;20029;-73
2021/06/27 05:44:14;;;;;;;14.38;5.25;;;;;;;20.04;68.77;94000.75;5061942;28;20028;-74
2021/06/27 05:46:39;;;;;;;21.15;5.55;;;;;;;20.17;67.96;94000.50;5054979;28;20099;-73
2021/06/27 05:49:05;;;;;;;21.33;6.63;;;;;;;20.32;67.39;94006.84;5057250;28;20107;-73
2021/06/27 05:51:32;;;;;;;17.55;4.65;;;;;;;20.49;66.17;94000.81;5056883;28;20060;-74
2021/06/27 05:53:58;;;;;;;14.73;4.82;;;;;;;20.64;65.45;94013.38;5042966;28;20036;-74
2021/06/27 05:56:23;;;;;;;13.20;4.80;;;;;;;20.71;66.25;94007.25;5053433;28;20025;-75
2021/06/27 05:58:48;;;;;;;13.48;4.28;;;;;;;20.87;66.16;94017.84;5059730;28;20028;-74
2021/06/27 06:01:16;;;;;;;21.13;5.30;;;;;;;21.00;65.49;94013.69;5071880;28;20032;-74
2021/06/27 06:03:43;;;;;;;15.70;5.03;;;;;;;21.09;64.25;94010.66;5066658;28;20020;-74
2021/06/27 06:06:10;;;;;;;19.00;5.63;;;;;;;21.26;63.98;94014.63;5055705;28;20069;-74
2021/06/27 06:08:40;;;;;;;15.70;4.82;;;;;;;21.48;63.26;94020.25;5062585;28;20085;-73
2021/06/27 06:11:06;;;;;;;22.55;5.95;;;;;;;21.61;62.18;94013.31;5052301;28;20055;-73
2021/06/27 06:13:32;;;;;;;17.38;4.40;;;;;;;21.78;62.40;94018.06;5059735;28;20557;-74
2021/06/27 06:15:57;;;;;;;26.42;4.40;;;;;;;22.03;62.23;94009.25;5069304;28;20033;-74
2021/06/27 06:18:50;;;;;;;23.58;4.78;;;;;;;22.29;62.07;94013.66;5061264;28;20115;-74
2021/06/27 06:21:17;;;;;;;18.27;4.97;;;;;;;22.57;61.61;94010.22;5060570;28;20027;-73
2021/06/27 06:23:42;;;;;;;10.50;3.70;;;;;;;22.74;58.37;94007.91;5063244;28;20086;-74
2021/06/27 06:26:09;;;;;;;16.88;4.03;;;;;;;22.81;58.31;94010.63;5061408;28;20025;-74
2021/06/27 06:28:35;;;;;;;12.57;3.35;;;;;;;22.80;58.40;94011.78;5065816;28;20450;-74
2021/06/27 06:31:00;;;;;;;12.98;3.97;;;;;;;22.84;58.31;94015.28;5062187;28;20024;-74
2021/06/27 06:33:26;;;;;;;11.13;2.83;;;;;;;22.87;58.35;94019.94;5062404;28;20396;-74
2021/06/27 06:35:52;;;;;;;12.13;3.42;;;;;;;22.88;57.54;94015.28;5059849;28;20484;-74
2021/06/27 06:38:17;;;;;;;19.23;3.53;;;;;;;22.83;58.83;94013.72;5062792;28;20031;-74
2021/06/27 06:40:43;;;;;;;13.77;3.35;;;;;;;22.85;58.26;94014.13;5070486;28;20032;-75
2021/06/27 06:43:08;;;;;;;9.52;3.30;;;;;;;22.85;56.53;94008.69;5063781;28;20016;-74
2021/06/27 06:45:34;;;;;;;9.20;3.35;;;;;;;22.81;57.35;94011.38;5057174;28;20079;-74
2021/06/27 06:48:00;;;;;;;14.75;3.95;;;;;;;22.75;57.23;94015.66;5060205;28;20027;-74
2021/06/27 06:50:26;;;;;;;11.68;3.45;;;;;;;22.64;57.00;94007.50;5062174;28;20054;-75
2021/06/27 06:52:53;;;;;;;15.20;3.17;;;;;;;22.56;58.71;94013.31;5056472;28;20028;-75
2021/06/27 06:55:21;;;;;;;15.38;3.67;;;;;;;22.51;59.10;94016.41;5067609;28;20091;-75
2021/06/27 06:57:47;;;;;;;20.17;3.17;;;;;;;22.53;59.30;94012.16;5069458;28;20420;-75
2021/06/27 07:00:13;;;;;;;15.75;3.08;;;;;;;22.62;59.33;94015.25;5067318;28;20028;-73
2021/06/27 07:02:39;;;;;;;14.15;3.75;;;;;;;22.66;58.78;94004.41;5058884;28;20021;-74
2021/06/27 07:05:07;;;;;;;11.50;2.80;;;;;;;22.72;58.34;94019.16;5059533;28;20404;-74
2021/06/27 07:07:33;;;;;;;17.02;3.03;;;;;;;22.78;57.04;94003.25;5063057;28;20032;-73
2021/06/27 07:09:58;;;;;;;9.77;3.45;;;;;;;22.88;57.91;94018.00;5058092;28;20420;-73
2021/06/27 07:12:24;;;;;;;10.98;4.18;;;;;;;22.93;58.43;94023.81;5068434;28;20067;-73
2021/06/27 07:14:49;;;;;;;16.98;3.63;;;;;;;22.96;58.13;94011.38;5067339;28;20521;-74
2021/06/27 07:17:15;;;;;;;12.77;3.22;;;;;;;23.08;57.97;94012.97;5069147;28;20414;-74
2021/06/27 07:19:40;;;;;;;8.77;3.25;;;;;;;23.14;57.28;94011.41;5061223;28;20111;-74
2021/06/27 07:22:06;;;;;;;11.52;3.05;;;;;;;23.14;56.17;94016.84;5065412;28;20017;-74
2021/06/27 07:24:31;;;;;;;14.13;3.60;;;;;;;23.10;56.24;94014.16;5062308;28;20032;-74
2021/06/27 07:26:57;;;;;;;12.48;3.45;;;;;;;23.12;56.60;94016.47;5066321;28;20464;-73
2021/06/27 07:29:22;;;;;;;18.10;3.45;;;;;;;23.19;58.65;94017.25;5066429;28;20029;-74
2021/06/27 07:31:48;;;;;;;11.45;3.42;;;;;;;23.26;56.38;94008.31;5068074;28;20068;-75
2021/06/27 07:34:13;;;;;;;17.45;5.35;;;;;;;23.28;57.88;94008.69;5050911;28;20023;-71
2021/06/27 07:36:39;;;;;;;10.93;3.15;;;;;;;23.32;55.45;94005.97;5050688;28;20028;-71
2021/06/27 07:39:04;;;;;;;17.27;3.97;;;;;;;23.38;58.23;94013.34;5050873;28;20021;-71
2021/06/27 07:41:30;;;;;;;9.90;3.47;;;;;;;23.35;55.66;94016.84;5050621;28;20374;-71
2021/06/27 07:43:55;;;;;;;6.85;3.50;;;;;;;23.34;57.08;94020.72;5050148;28;20025;-74
2021/06/27 07:46:20;;;;;;;11.32;3.17;;;;;;;23.34;56.11;94011.78;5050181;28;20029;-74
2021/06/27 07:48:46;;;;;;;8.93;2.95;;;;;;;23.42;56.47;94011.38;5050076;28;20021;-74
2021/06/27 07:51:11;;;;;;;13.05;3.55;;;;;;;23.51;57.49;94013.72;5050744;28;20021;-73
2021/06/27 07:53:37;;;;;;;9.13;3.40;;;;;;;23.64;55.55;94011.34;5049393;28;20082;-72
2021/06/27 07:56:03;;;;;;;12.32;3.53;;;;;;;23.73;51.96;94009.00;5049574;28;20403;-78
2021/06/27 07:58:29;;;;;;;18.50;3.47;;;;;;;23.83;55.52;94013.69;5050581;28;20013;-75
2021/06/27 08:00:54;;;;;;;13.48;3.25;;;;;;;23.95;54.14;94007.00;5050102;28;20036;-74
2021/06/27 08:03:19;;;;;;;8.77;2.83;;;;;;;24.08;51.14;94014.72;5049430;28;20052;-75
2021/06/27 08:05:45;;;;;;;7.47;2.75;;;;;;;24.25;46.75;94016.59;5048917;28;20423;-75
2021/06/27 08:08:10;;;;;;;8.88;3.38;;;;;;;24.32;46.85;94010.34;5049654;28;20020;-75
2021/06/27 08:10:36;;;;;;;11.23;3.05;;;;;;;24.39;49.01;94015.75;5050592;28;20025;-74
2021/06/27 08:13:02;;;;;;;10.77;3.05;;;;;;;24.41;50.48;94006.00;5049984;28;20024;-74
2021/06/27 08:15:28;;;;;;;11.57;3.63;;;;;;;24.48;48.32;94016.09;5048942;28;20086;-75
2021/06/27 08:17:54;;;;;;;8.27;2.55;;;;;;;24.62;47.27;94012.53;5050227;28;20021;-75
2021/06/27 08:20:22;;;;;;;15.73;3.08;;;;;;;24.80;47.95;94010.47;5050246;28;20107;-74
2021/06/27 08:22:48;;;;;;;9.88;2.72;;;;;;;24.93;47.81;94016.22;5050022;28;20116;-75
2021/06/27 08:25:14;;;;;;;11.27;3.00;;;;;;;25.04;48.24;94010.69;5065914;28;20024;-73
2021/06/27 08:27:39;;;;;;;7.95;2.85;;;;;;;25.03;47.08;94009.91;5056084;28;20419;-74
2021/06/27 08:30:09;;;;;;;12.15;3.15;;;;;;;25.02;47.26;94013.81;5060083;28;20480;-74
2021/06/27 08:32:43;;;;;;;14.32;3.75;;;;;;;24.93;47.02;94008.03;5067053;28;20020;-73
2021/06/27 08:35:10;;;;;;;13.20;3.45;;;;;;;24.82;46.70;94004.63;5062906;28;20059;-74
2021/06/27 08:37:36;;;;;;;12.43;3.65;;;;;;;24.81;47.64;94008.50;5061648;28;20476;-74
2021/06/27 08:40:01;;;;;;;10.38;3.22;;;;;;;24.87;46.58;94001.44;5070451;28;20035;-74
2021/06/27 08:42:27;;;;;;;12.07;3.55;;;;;;;24.91;45.01;93999.47;5060105;28;20347;-74
2021/06/27 08:44:55;;;;;;;10.38;2.78;;;;;;;24.90;44.35;94000.66;5069407;28;20017;-74
2021/06/27 08:47:21;;;;;;;15.07;3.88;;;;;;;24.96;47.62;94003.75;5049898;28;20021;-74
2021/06/27 08:49:48;;;;;;;8.23;3.20;;;;;;;24.94;44.30;93992.47;5062250;28;20024;-74
2021/06/27 08:52:19;;;;;;;11.60;4.70;;;;;;;25.02;45.52;93992.00;5064160;28;20036;-74
2021/06/27 08:54:46;;;;;;;9.23;2.97;;;;;;;25.07;45.16;93995.47;5050045;28;20025;-74
2021/06/27 08:57:13;;;;;;;10.27;3.03;;;;;;;25.09;46.14;93998.56;5052623;28;20052;-74
2021/06/27 08:59:42;;;;;;;10.45;3.10;;;;;;;25.22;47.52;93988.75;5053383;28;20415;-74
2021/06/27 09:02:09;;;;;;;10.80;3.13;;;;;;;25.32;45.31;93993.34;5068152;28;20040;-74
2021/06/27 09:04:39;;;;;;;5.45;3.13;;;;;;;25.25;44.16;93993.38;5063562;28;20025;-74
2021/06/27 09:07:24;;;;;;;21.70;4.03;;;;;;;25.25;44.66;94000.81;5051116;28;20036;-74
2021/06/27 09:09:50;;;;;;;8.50;3.42;;;;;;;25.32;44.80;94004.25;5054245;28;20067;-74
2021/06/27 09:12:15;;;;;;;11.60;3.20;;;;;;;25.36;43.62;93994.09;5052868;28;20075;-74
2021/06/27 09:14:46;;;;;;;12.00;3.30;;;;;;;25.43;44.84;93991.25;5053787;28;20106;-76
2021/06/27 09:17:15;;;;;;;12.43;3.47;;;;;;;25.62;44.68;93986.41;5056331;28;20024;-75
2021/06/27 09:19:58;;;;;;;7.55;3.53;;;;;;;25.77;44.81;93984.31;5058230;28;20028;-73
2021/06/27 09:22:31;;;;;;;16.77;3.35;;;;;;;26.02;46.82;93978.56;5060032;28;20103;-73
2021/06/27 09:25:23;;;;;;;10.85;3.85;;;;;;;26.27;46.04;93978.25;5048060;28;20090;-73
2021/06/27 09:28:09;;;;;;;10.73;3.10;;;;;;;26.39;45.30;93982.38;5047779;28;20468;-72
2021/06/27 09:30:55;;;;;;;8.77;3.47;;;;;;;26.48;42.81;93976.41;5045380;28;20508;-72
2021/06/27 09:33:30;;;;;;;5.85;3.20;;;;;;;26.57;43.64;93980.19;5068932;28;20451;-72
2021/06/27 09:36:05;;;;;;;10.77;3.15;;;;;;;26.59;42.27;93983.28;5070656;28;20447;-71
2021/06/27 09:38:37;;;;;;;8.38;3.70;;;;;;;26.73;42.08;93981.56;5072326;28;20020;-72
2021/06/27 09:41:13;;;;;;;5.38;2.75;;;;;;;26.96;41.21;93978.81;5060735;28;20028;-79
2021/06/27 09:43:40;;;;;;;9.02;2.63;;;;;;;27.02;39.87;93977.16;5062686;28;20094;-79
2021/06/27 09:46:12;;;;;;;8.82;3.20;;;;;;;27.08;40.28;93979.44;5065628;28;20516;-79
2021/06/27 09:48:54;;;;;;;10.45;3.45;;;;;;;27.18;39.90;93973.00;5062532;28;20459;-79
2021/06/27 09:51:21;;;;;;;9.00;3.40;;;;;;;27.24;40.09;93978.81;5061023;28;20033;-78
2021/06/27 09:53:48;;;;;;;10.60;3.08;;;;;;;27.22;40.53;93968.25;5053475;28;20063;-79
2021/06/27 09:56:14;;;;;;;7.10;3.45;;;;;;;27.21;39.73;93964.75;5051112;28;20028;-77
2021/06/27 09:58:40;;;;;;;9.07;3.10;;;;;;;27.12;39.75;93967.25;5052565;28;20099;-78
2021/06/27 10:01:25;;;;;;;7.57;2.65;;;;;;;27.08;39.78;93960.28;5052155;28;20054;-79
2021/06/27 10:03:56;;;;;;;10.68;3.55;;;;;;;27.06;40.36;93965.41;5066135;28;20075;-77
2021/06/27 10:06:27;;;;;;;15.23;3.55;;;;;;;26.99;39.61;93967.06;5064753;28;20021;-82
2021/06/27 10:08:53;;;;;;;15.50;3.63;;;;;;;27.01;41.21;93959.22;5052760;28;20028;-82
2021/06/27 10:11:24;;;;;;;6.75;2.97;;;;;;;27.16;40.68;93957.00;5050614;28;20159;-82
2021/06/27 10:13:53;;;;;;;25.38;3.90;;;;;;;27.25;39.83;93958.47;5063267;28;20049;-81
2021/06/27 10:16:29;;;;;;;20.95;3.83;;;;;;;27.37;39.97;93952.38;5068089;28;20049;-82
2021/06/27 10:18:57;;;;;;;9.13;3.28;;;;;;;27.56;39.99;93959.06;5059715;28;20016;-80
2021/06/27 10:21:23;;;;;;;9.88;3.17;;;;;;;27.73;39.94;93947.00;5057010;28;20040;-71
2021/06/27 10:23:50;;;;;;;10.35;3.30;;;;;;;27.92;38.76;93961.16;5064930;28;20017;-74
2021/06/27 10:26:17;;;;;;;7.22;2.83;;;;;;;27.79;38.49;93950.81;5063657;28;20032;-73
2021/06/27 10:28:43;;;;;;;14.52;3.38;;;;;;;27.66;39.96;93952.63;5062054;28;20027;-71
2021/06/27 10:31:12;;;;;;;7.75;2.75;;;;;;;27.58;40.60;93951.22;5065736;28;20024;-73
2021/06/27 10:33:39;;;;;;;9.80;3.20;;;;;;;27.42;40.38;93955.41;5068599;28;20115;-74
2021/06/27 10:36:06;;;;;;;10.77;3.35;;;;;;;27.39;39.03;93955.47;5069098;28;20060;-75
2021/06/27 10:38:33;;;;;;;8.48;2.88;;;;;;;27.36;40.47;93950.84;5054903;28;20047;-73
2021/06/27 10:41:00;;;;;;;12.73;3.35;;;;;;;27.26;40.98;93949.84;5070733;28;20036;-73
2021/06/27 10:44:03;;;;;;;11.02;3.10;;;;;;;27.25;40.45;93953.75;5060947;28;20060;-73
2021/06/27 10:46:48;;;;;;;14.25;3.97;;;;;;;27.18;40.42;93951.88;5060595;28;20024;-73
2021/06/27 10:49:46;;;;;;;12.52;3.00;;;;;;;27.15;41.46;93947.28;5060821;28;20025;-73
2021/06/27 10:52:12;;;;;;;7.95;2.58;;;;;;;27.21;39.39;93944.81;5026608;28;20036;-74
2021/06/27 10:55:15;;;;;;;10.50;2.97;;;;;;;27.32;40.21;93939.19;5063134;28;20052;-74
2021/06/27 10:58:02;;;;;;;8.05;3.20;;;;;;;27.41;40.43;93940.16;5064068;28;20467;-74
2021/06/27 11:00:57;;;;;;;7.10;3.30;;;;;;;27.47;40.13;93947.91;5059040;28;20021;-74
2021/06/27 11:03:42;;;;;;;12.88;3.20;;;;;;;27.50;41.72;93938.84;5066474;28;20020;-75
2021/06/27 11:06:17;;;;;;;8.00;3.22;;;;;;;27.56;41.09;93935.22;5060903;28;20119;-76
2021/06/27 11:08:44;;;;;;;17.95;3.03;;;;;;;27.53;37.55;93944.25;5059312;28;20090;-75
2021/06/27 11:11:19;;;;;;;13.10;2.67;;;;;;;27.61;38.35;93939.44;5065779;28;20036;-75
2021/06/27 11:14:10;;;;;;;9.20;2.95;;;;;;;27.79;39.56;93942.59;5050462;28;20056;-77
2021/06/27 11:16:59;;;;;;;8.88;3.50;;;;;;;27.90;38.53;93928.69;5050678;28;20037;-77
2021/06/27 11:19:27;;;;;;;11.75;2.88;;;;;;;28.08;38.56;93928.34;5049752;28;20111;-75
2021/06/27 11:22:11;;;;;;;13.30;2.78;;;;;;;28.23;39.07;93928.81;5063568;28;20068;-75
2021/06/27 11:24:36;;;;;;;8.07;2.70;;;;;;;28.24;37.12;93926.84;5050964;28;20455;-75
2021/06/27 11:27:02;;;;;;;14.43;3.15;;;;;;;28.24;37.78;93937.81;5049392;28;20032;-76
2021/06/27 11:29:30;;;;;;;8.70;3.00;;;;;;;28.17;39.39;93935.97;5061090;28;20069;-75
2021/06/27 11:32:08;;;;;;;11.10;2.80;;;;;;;28.13;38.92;93925.09;5069578;28;20060;-75